createdAt,value
2023-01-19T00:00:01.097Z,-1.34
2023-01-19T00:03:05.592Z,-1.35
2023-01-19T00:06:10.109Z,-1.36
2023-01-19T00:09:13.965Z,-1.34
2023-01-19T00:12:18.029Z,-1.33
2023-01-19T00:15:21.940Z,-1.36
2023-01-19T00:18:26.010Z,-1.38
2023-01-19T00:21:30.223Z,-1.37
2023-01-19T00:24:34.556Z,-1.41
2023-01-19T00:27:38.697Z,-1.40
2023-01-19T00:30:43.337Z,-1.38
2023-01-19T00:33:49.148Z,-1.45
2023-01-19T00:36:53.481Z,-1.50
2023-01-19T00:39:57.202Z,-1.28
2023-01-19T00:43:01.414Z,-1.30
2023-01-19T00:46:05.923Z,-1.39
2023-01-19T00:49:10.005Z,-1.41
2023-01-19T00:52:14.310Z,-1.41
2023-01-19T00:55:18.444Z,-1.48
2023-01-19T00:58:22.812Z,-1.44
2023-01-19T01:01:45.770Z,-1.49
2023-01-19T01:04:54.752Z,-1.50
2023-01-19T01:07:58.723Z,-1.51
2023-01-19T01:11:03.156Z,-1.54
2023-01-19T01:14:08.656Z,-1.53
2023-01-19T01:17:14.188Z,-1.56
2023-01-19T01:20:21.316Z,-1.51
2023-01-19T01:23:25.091Z,-1.50
2023-01-19T01:26:29.000Z,-1.54
2023-01-19T01:29:35.265Z,-1.54
2023-01-19T01:32:39.651Z,-1.61
2023-01-19T01:35:43.743Z,-1.55
2023-01-19T01:38:47.679Z,-1.61
2023-01-19T01:41:52.011Z,-1.66
2023-01-19T01:45:02.341Z,-1.71
2023-01-19T01:48:15.652Z,-1.69
2023-01-19T01:51:30.316Z,-1.67
2023-01-19T01:54:37.457Z,-1.68
2023-01-19T01:57:46.143Z,-1.69
2023-01-19T02:01:08.935Z,-1.74
2023-01-19T02:04:13.170Z,-1.83
2023-01-19T02:07:45.773Z,-1.83
2023-01-19T02:11:09.566Z,-1.88
2023-01-19T02:14:13.568Z,-1.82
2023-01-19T02:17:17.497Z,-1.84
2023-01-19T02:20:26.001Z,-1.82
2023-01-19T02:23:37.930Z,-1.85
2023-01-19T02:26:44.981Z,-1.81
2023-01-19T02:29:48.825Z,-1.84
2023-01-19T02:32:53.921Z,-1.86
2023-01-19T02:35:58.081Z,-1.90
2023-01-19T02:39:04.422Z,-1.91
2023-01-19T02:42:13.913Z,-1.96
2023-01-19T02:45:21.737Z,-1.96
2023-01-19T02:48:25.975Z,-1.93
2023-01-19T02:51:30.164Z,-1.90
2023-01-19T02:54:33.851Z,-1.90
2023-01-19T02:57:59.656Z,-1.84
2023-01-19T03:01:17.975Z,-1.84
2023-01-19T03:04:33.976Z,-1.79
2023-01-19T03:07:37.930Z,-1.94
2023-01-19T03:11:04.703Z,-1.88
2023-01-19T03:14:16.342Z,-1.99
2023-01-19T03:17:22.265Z,-1.93
2023-01-19T03:20:28.799Z,-2.06
2023-01-19T03:23:35.330Z,-2.12
2023-01-19T03:26:44.177Z,-2.21
2023-01-19T03:29:52.912Z,-2.20
2023-01-19T03:33:03.243Z,-2.15
2023-01-19T03:36:17.115Z,-2.27
2023-01-19T03:39:22.955Z,-2.27
2023-01-19T03:42:28.670Z,-2.08
2023-01-19T03:45:34.221Z,-2.08
2023-01-19T03:48:38.542Z,-2.14
2023-01-19T03:51:42.688Z,-2.07
2023-01-19T03:54:49.723Z,-2.02
2023-01-19T03:57:53.938Z,-2.00
2023-01-19T04:00:57.922Z,-2.12
2023-01-19T04:04:01.956Z,-2.05
2023-01-19T04:07:06.383Z,-2.18
2023-01-19T04:10:12.724Z,-2.04
2023-01-19T04:13:16.836Z,-2.15
2023-01-19T04:16:21.233Z,-2.21
2023-01-19T04:19:25.456Z,-2.24
2023-01-19T04:22:29.823Z,-2.37
2023-01-19T04:25:33.867Z,-2.36
2023-01-19T04:28:38.375Z,-2.44
2023-01-19T04:31:43.162Z,-2.24
2023-01-19T04:34:47.242Z,-2.34
2023-01-19T04:37:51.224Z,-2.50
2023-01-19T04:40:55.638Z,-2.61
2023-01-19T04:43:59.728Z,-2.61
2023-01-19T04:47:03.886Z,-2.70
2023-01-19T04:50:09.241Z,-2.69
2023-01-19T04:53:14.488Z,-2.68
2023-01-19T04:56:18.633Z,-2.68
2023-01-19T04:59:22.847Z,-2.71
2023-01-19T05:02:26.975Z,-2.64
2023-01-19T05:05:32.905Z,-2.54
2023-01-19T05:08:36.883Z,-2.56
2023-01-19T05:11:41.643Z,-2.65
2023-01-19T05:14:46.008Z,-2.54
2023-01-19T05:17:50.306Z,-2.69
2023-01-19T05:20:54.444Z,-2.58
2023-01-19T05:23:59.223Z,-2.57
2023-01-19T05:27:03.823Z,-2.58
2023-01-19T05:30:08.585Z,-2.61
2023-01-19T05:33:12.620Z,-2.60
2023-01-19T05:36:16.379Z,-2.65
2023-01-19T05:39:20.394Z,-2.51
2023-01-19T05:42:24.873Z,-2.48
2023-01-19T05:45:29.003Z,-2.53
2023-01-19T05:48:33.250Z,-2.50
2023-01-19T05:51:38.899Z,-2.56
2023-01-19T05:54:43.236Z,-2.62
2023-01-19T05:57:47.644Z,-2.69
2023-01-19T06:00:51.604Z,-2.71
2023-01-19T06:03:55.683Z,-2.75
2023-01-19T06:06:59.799Z,-2.65
2023-01-19T06:10:04.123Z,-2.63
2023-01-19T06:13:09.695Z,-2.64
2023-01-19T06:16:14.675Z,-2.67
2023-01-19T06:19:18.805Z,-2.74
2023-01-19T06:22:23.089Z,-2.72
2023-01-19T06:25:27.404Z,-2.74
2023-01-19T06:28:31.855Z,-2.61
2023-01-19T06:31:36.289Z,-2.59
2023-01-19T06:34:43.624Z,-2.59
2023-01-19T06:37:47.359Z,-2.66
2023-01-19T06:40:58.346Z,-2.51
2023-01-19T06:44:03.079Z,-2.47
2023-01-19T06:47:15.835Z,-2.46
2023-01-19T06:50:20.099Z,-2.66
2023-01-19T06:53:24.111Z,-2.58
2023-01-19T06:56:28.163Z,-2.62
2023-01-19T06:59:32.582Z,-2.49
2023-01-19T07:02:37.087Z,-2.50
2023-01-19T07:05:41.104Z,-2.61
2023-01-19T07:08:44.992Z,-2.63
2023-01-19T07:11:49.148Z,-2.59
2023-01-19T07:14:53.428Z,-2.56
2023-01-19T07:17:59.083Z,-2.50
2023-01-19T07:21:04.523Z,-2.39
2023-01-19T07:24:08.572Z,-2.36
2023-01-19T07:27:12.924Z,-2.35
2023-01-19T07:30:17.176Z,-2.22
2023-01-19T07:33:24.815Z,-2.13
2023-01-19T07:36:29.081Z,-2.17
2023-01-19T07:39:33.517Z,-2.14
2023-01-19T07:42:38.011Z,-2.18
2023-01-19T07:45:42.020Z,-2.24
2023-01-19T07:48:47.364Z,-2.23
2023-01-19T07:51:51.528Z,-2.11
2023-01-19T07:54:55.623Z,-2.05
2023-01-19T07:57:59.452Z,-2.09
2023-01-19T08:01:11.916Z,-2.02
2023-01-19T08:04:16.319Z,-1.96
2023-01-19T08:07:19.951Z,-2.05
2023-01-19T08:10:26.696Z,-1.89
2023-01-19T08:13:30.911Z,-1.84
2023-01-19T08:16:36.159Z,-1.84
2023-01-19T08:19:41.708Z,-1.83
2023-01-19T08:22:47.500Z,-1.82
2023-01-19T08:25:51.364Z,-1.73
2023-01-19T08:28:57.727Z,-1.68
2023-01-19T08:32:03.042Z,-1.74
2023-01-19T08:35:07.769Z,-1.60
2023-01-19T08:38:11.855Z,-1.63
2023-01-19T08:41:18.773Z,-1.52
2023-01-19T08:44:22.745Z,-1.55
2023-01-19T08:47:26.928Z,-1.47
2023-01-19T08:50:32.876Z,-1.18
2023-01-19T08:53:36.863Z,-0.76
2023-01-19T08:56:41.395Z,-0.51
2023-01-19T08:59:47.397Z,-0.28
2023-01-19T09:02:51.561Z,-0.17
2023-01-19T09:05:55.515Z,-0.14
2023-01-19T09:08:59.752Z,-0.16
2023-01-19T09:12:04.355Z,-0.13
2023-01-19T09:15:10.884Z,0.05
2023-01-19T09:18:18.099Z,0.11
2023-01-19T09:21:22.363Z,0.34
2023-01-19T09:24:26.682Z,0.47
2023-01-19T09:27:30.832Z,0.46
2023-01-19T09:30:37.461Z,0.61
2023-01-19T09:33:41.350Z,0.62
2023-01-19T09:36:47.221Z,0.59
2023-01-19T09:39:51.630Z,0.57
2023-01-19T09:42:59.514Z,0.71
2023-01-19T09:46:16.153Z,0.68
2023-01-19T09:49:31.500Z,0.79
2023-01-19T09:52:39.555Z,0.78
2023-01-19T09:55:43.515Z,0.77
2023-01-19T09:58:49.663Z,0.78
2023-01-19T10:02:41.865Z,0.70
2023-01-19T10:05:50.924Z,0.77
2023-01-19T10:09:11.814Z,0.51
2023-01-19T10:12:43.809Z,0.49
2023-01-19T10:16:09.413Z,0.65
2023-01-19T10:19:46.477Z,0.79
2023-01-19T10:22:51.055Z,0.85
2023-01-19T10:25:57.321Z,0.88
2023-01-19T10:29:13.628Z,0.94
2023-01-19T10:32:22.488Z,1.05
2023-01-19T10:35:26.647Z,1.11
2023-01-19T10:38:34.075Z,1.25
2023-01-19T10:41:51.494Z,1.16
2023-01-19T10:44:55.869Z,1.28
2023-01-19T10:48:07.199Z,1.38
2023-01-19T10:51:11.745Z,1.41
2023-01-19T10:54:15.962Z,1.44
2023-01-19T10:57:32.997Z,1.53
2023-01-19T11:00:41.486Z,1.38
2023-01-19T11:03:46.093Z,1.39
2023-01-19T11:06:49.976Z,1.65
2023-01-19T11:10:15.949Z,1.61
2023-01-19T11:13:19.827Z,1.66
2023-01-19T11:16:29.062Z,1.69
2023-01-19T11:19:33.871Z,1.80
2023-01-19T11:22:37.886Z,1.75
2023-01-19T11:25:47.368Z,1.79
2023-01-19T11:28:54.671Z,1.90
2023-01-19T11:32:11.385Z,1.92
2023-01-19T11:35:39.981Z,1.91
2023-01-19T11:38:47.037Z,1.91
2023-01-19T11:42:02.964Z,1.96
2023-01-19T11:45:15.800Z,2.11
2023-01-19T11:48:43.059Z,2.05
2023-01-19T11:51:59.766Z,2.14
2023-01-19T11:55:34.109Z,2.05
2023-01-19T11:58:44.382Z,2.12
2023-01-19T12:01:54.791Z,2.09
2023-01-19T12:05:04.799Z,2.18
2023-01-19T12:08:16.543Z,2.15
2023-01-19T12:11:26.275Z,2.18
2023-01-19T12:14:42.269Z,2.16
2023-01-19T12:17:52.213Z,2.22
2023-01-19T12:20:56.551Z,2.29
2023-01-19T12:24:03.573Z,2.43
2023-01-19T12:27:38.365Z,2.35
2023-01-19T12:30:50.238Z,2.34
2023-01-19T12:33:54.586Z,2.47
2023-01-19T12:37:03.751Z,2.48
2023-01-19T12:40:19.724Z,2.45
2023-01-19T12:43:24.614Z,2.40
2023-01-19T12:46:31.886Z,2.30
2023-01-19T12:49:38.878Z,2.20
2023-01-19T12:52:51.563Z,2.24
2023-01-19T12:56:00.994Z,2.31
2023-01-19T12:59:06.472Z,2.51
2023-01-19T13:02:46.495Z,2.70
2023-01-19T13:05:56.421Z,2.81
2023-01-19T13:09:01.271Z,2.86
2023-01-19T13:12:14.547Z,2.91
2023-01-19T13:15:35.307Z,2.94
2023-01-19T13:18:42.066Z,2.82
2023-01-19T13:21:48.212Z,2.97
2023-01-19T13:25:07.183Z,3.09
2023-01-19T13:28:16.354Z,3.11
2023-01-19T13:31:21.956Z,3.14
2023-01-19T13:34:28.194Z,3.08
2023-01-19T13:37:44.356Z,3.01
2023-01-19T13:40:49.258Z,3.06
2023-01-19T13:44:09.066Z,2.87
2023-01-19T13:47:19.486Z,2.77
2023-01-19T13:50:31.673Z,2.83
2023-01-19T13:53:36.591Z,2.74
2023-01-19T13:56:42.843Z,2.76
2023-01-19T14:00:14.786Z,2.61
2023-01-19T14:03:25.417Z,2.67
2023-01-19T14:06:36.224Z,2.70
2023-01-19T14:09:40.362Z,2.66
2023-01-19T14:12:58.636Z,2.68
2023-01-19T14:16:10.679Z,2.73
2023-01-19T14:19:14.512Z,2.57
2023-01-19T14:22:18.784Z,2.58
2023-01-19T14:25:29.139Z,2.69
2023-01-19T14:28:43.338Z,2.62
2023-01-19T14:31:49.096Z,2.63
2023-01-19T14:35:04.506Z,2.58
2023-01-19T14:38:14.106Z,2.45
2023-01-19T14:41:48.040Z,2.52
2023-01-19T14:44:53.055Z,2.60
2023-01-19T14:48:01.076Z,2.59
2023-01-19T14:51:05.837Z,2.54
2023-01-19T14:54:18.848Z,2.55
2023-01-19T14:57:23.148Z,2.50
2023-01-19T15:00:27.561Z,2.43
2023-01-19T15:03:44.740Z,2.49
2023-01-19T15:06:49.736Z,2.46
2023-01-19T15:09:53.945Z,2.43
2023-01-19T15:12:59.684Z,2.45
2023-01-19T15:16:04.544Z,2.36
2023-01-19T15:19:13.359Z,2.34
2023-01-19T15:22:17.841Z,2.34
2023-01-19T15:25:27.062Z,2.26
2023-01-19T15:28:31.723Z,2.44
2023-01-19T15:31:36.193Z,2.31
2023-01-19T15:34:40.673Z,2.21
2023-01-19T15:37:46.135Z,2.32
2023-01-19T15:40:51.694Z,2.34
2023-01-19T15:43:56.247Z,2.29
2023-01-19T15:47:00.091Z,2.26
2023-01-19T15:50:04.518Z,2.18
2023-01-19T15:53:15.006Z,2.10
2023-01-19T15:56:26.352Z,2.04
2023-01-19T15:59:30.352Z,2.07
2023-01-19T16:02:35.489Z,2.12
2023-01-19T16:05:43.744Z,2.04
2023-01-19T16:08:47.748Z,2.06
2023-01-19T16:11:56.828Z,2.07
2023-01-19T16:15:01.034Z,2.02
2023-01-19T16:18:05.808Z,2.04
2023-01-19T16:21:10.131Z,2.06
2023-01-19T16:24:14.058Z,2.12
2023-01-19T16:27:18.076Z,2.17
2023-01-19T16:30:22.308Z,2.22
2023-01-19T16:33:26.622Z,2.18
2023-01-19T16:36:32.620Z,2.16
2023-01-19T16:39:36.587Z,2.11
2023-01-19T16:42:40.757Z,2.13
2023-01-19T16:46:00.026Z,2.17
2023-01-19T16:49:07.010Z,2.09
2023-01-19T16:52:11.793Z,2.04
2023-01-19T16:55:15.827Z,2.02
2023-01-19T16:58:19.736Z,2.03
2023-01-19T17:01:25.994Z,2.02
2023-01-19T17:04:30.348Z,1.96
2023-01-19T17:07:34.810Z,1.96
2023-01-19T17:10:40.176Z,2.00
2023-01-19T17:13:44.486Z,2.08
2023-01-19T17:16:48.816Z,2.03
2023-01-19T17:19:52.439Z,2.06
2023-01-19T17:22:56.853Z,2.05
2023-01-19T17:26:01.024Z,2.04
2023-01-19T17:29:07.229Z,2.04
2023-01-19T17:32:11.356Z,2.00
2023-01-19T17:35:15.609Z,2.12
2023-01-19T17:38:19.861Z,2.08
2023-01-19T17:41:29.467Z,2.07
2023-01-19T17:44:33.318Z,2.05
2023-01-19T17:47:38.297Z,2.07
2023-01-19T17:50:42.013Z,2.06
2023-01-19T17:53:46.079Z,2.13
2023-01-19T17:56:50.909Z,2.14
2023-01-19T17:59:55.321Z,2.12
2023-01-19T18:02:59.571Z,2.13
2023-01-19T18:06:03.788Z,2.11
2023-01-19T18:09:08.196Z,2.24
2023-01-19T18:12:12.550Z,2.22
2023-01-19T18:15:17.071Z,2.17
2023-01-19T18:18:21.463Z,2.18
2023-01-19T18:21:28.128Z,2.18
2023-01-19T18:24:32.484Z,2.18
2023-01-19T18:27:36.432Z,2.16
2023-01-19T18:30:40.489Z,2.21
2023-01-19T18:33:45.025Z,2.18
2023-01-19T18:36:49.147Z,2.17
2023-01-19T18:39:54.864Z,2.15
2023-01-19T18:42:58.669Z,2.18
2023-01-19T18:46:03.006Z,2.15
2023-01-19T18:49:07.491Z,2.13
2023-01-19T18:52:11.577Z,2.05
2023-01-19T18:55:15.725Z,2.04
2023-01-19T18:58:20.709Z,2.05
2023-01-19T19:01:27.338Z,2.05
2023-01-19T19:04:31.470Z,2.02
2023-01-19T19:07:37.463Z,2.03
2023-01-19T19:10:42.144Z,2.00
2023-01-19T19:13:45.943Z,1.96
2023-01-19T19:16:50.157Z,1.96
2023-01-19T19:19:54.332Z,1.93
2023-01-19T19:22:58.321Z,1.98
2023-01-19T19:26:12.195Z,1.90
2023-01-19T19:29:16.052Z,1.97
2023-01-19T19:32:20.946Z,1.93
2023-01-19T19:35:25.820Z,1.94
2023-01-19T19:38:30.383Z,1.97
2023-01-19T19:41:34.540Z,1.86
2023-01-19T19:44:38.971Z,1.91
2023-01-19T19:47:43.842Z,1.92
2023-01-19T19:50:47.964Z,1.98
2023-01-19T19:53:55.216Z,1.93
2023-01-19T19:56:59.408Z,1.89
2023-01-19T20:00:05.268Z,1.94
2023-01-19T20:03:13.401Z,1.97
2023-01-19T20:06:21.324Z,1.96
2023-01-19T20:09:25.468Z,1.95
2023-01-19T20:12:29.351Z,1.99
2023-01-19T20:15:37.847Z,2.00
2023-01-19T20:18:44.231Z,1.99
2023-01-19T20:21:48.203Z,2.02
2023-01-19T20:24:52.253Z,2.03
2023-01-19T20:27:57.008Z,2.03
2023-01-19T20:31:16.322Z,2.04
2023-01-19T20:34:23.623Z,2.03
2023-01-19T20:37:27.912Z,2.07
2023-01-19T20:40:31.902Z,2.09
2023-01-19T20:43:36.060Z,2.19
2023-01-19T20:46:40.204Z,2.12
2023-01-19T20:49:44.530Z,2.08
2023-01-19T20:52:49.980Z,2.08
2023-01-19T20:55:54.040Z,2.12
2023-01-19T20:58:59.187Z,2.09
2023-01-19T21:02:03.344Z,1.98
2023-01-19T21:05:07.794Z,1.98
2023-01-19T21:08:13.352Z,1.97
2023-01-19T21:11:20.776Z,2.03
2023-01-19T21:14:24.531Z,2.06
2023-01-19T21:17:28.548Z,2.04
2023-01-19T21:20:33.056Z,2.05
2023-01-19T21:23:36.893Z,2.07
2023-01-19T21:26:41.757Z,2.04
2023-01-19T21:29:48.261Z,2.04
2023-01-19T21:32:52.574Z,2.06
2023-01-19T21:35:57.662Z,2.09
2023-01-19T21:39:01.719Z,2.17
2023-01-19T21:42:06.013Z,2.13
2023-01-19T21:45:10.839Z,2.05
2023-01-19T21:48:16.883Z,2.06
2023-01-19T21:51:20.909Z,2.04
2023-01-19T21:54:24.698Z,2.01
2023-01-19T21:57:28.893Z,2.07
2023-01-19T22:00:32.906Z,2.08
2023-01-19T22:03:37.185Z,2.11
2023-01-19T22:06:41.192Z,2.15
2023-01-19T22:09:44.831Z,2.18
2023-01-19T22:12:48.744Z,2.20
2023-01-19T22:16:00.070Z,2.24
2023-01-19T22:19:03.911Z,2.19
2023-01-19T22:22:08.079Z,2.18
2023-01-19T22:25:12.417Z,2.18
2023-01-19T22:28:16.717Z,2.12
2023-01-19T22:31:20.907Z,2.12
2023-01-19T22:34:25.510Z,2.13
2023-01-19T22:37:29.636Z,2.15
2023-01-19T22:40:33.862Z,2.13
2023-01-19T22:43:38.196Z,2.07
2023-01-19T22:46:42.818Z,2.10
2023-01-19T22:49:46.804Z,2.15
2023-01-19T22:52:55.259Z,2.13
2023-01-19T22:55:59.398Z,2.16
2023-01-19T22:59:04.793Z,2.17
2023-01-19T23:02:09.279Z,2.16
2023-01-19T23:05:13.648Z,2.15
2023-01-19T23:08:18.371Z,2.15
2023-01-19T23:11:25.681Z,2.14
2023-01-19T23:14:30.064Z,2.14
2023-01-19T23:17:33.993Z,2.08
2023-01-19T23:20:38.114Z,2.15
2023-01-19T23:23:42.978Z,2.17
2023-01-19T23:26:49.208Z,2.16
2023-01-19T23:29:53.057Z,2.17
2023-01-19T23:32:57.212Z,2.24
2023-01-19T23:36:01.152Z,2.19
2023-01-19T23:39:11.328Z,2.15
2023-01-19T23:42:15.212Z,2.13
2023-01-19T23:45:19.201Z,2.18
2023-01-19T23:48:22.921Z,2.10
2023-01-19T23:51:29.287Z,2.05
2023-01-19T23:54:33.427Z,2.03
2023-01-19T23:57:37.537Z,1.99
